sensor_id;sensor_type;location;lat;lon;timestamp;pressure;altitude;pressure_sealevel;temperature;humidity
76762;BME280;65705;51.032;13.790;2023-06-14T00:01:46;100332.69;;;15.61;56.43
76762;BME280;65705;51.032;13.790;2023-06-14T00:04:13;100338.53;;;15.57;56.49
76762;BME280;65705;51.032;13.790;2023-06-14T00:06:39;100331.59;;;15.56;56.39
76762;BME280;65705;51.032;13.790;2023-06-14T00:09:07;100331.78;;;15.54;56.81
76762;BME280;65705;51.032;13.790;2023-06-14T00:11:34;100330.16;;;15.53;56.73
76762;BME280;65705;51.032;13.790;2023-06-14T00:14:00;100336.28;;;15.54;56.81
76762;BME280;65705;51.032;13.790;2023-06-14T00:16:25;100335.84;;;15.50;56.94
76762;BME280;65705;51.032;13.790;2023-06-14T00:18:51;100334.19;;;15.49;56.98
76762;BME280;65705;51.032;13.790;2023-06-14T00:21:17;100324.50;;;15.42;56.88
76762;BME280;65705;51.032;13.790;2023-06-14T00:23:43;100327.78;;;15.44;57.13
76762;BME280;65705;51.032;13.790;2023-06-14T00:26:09;100330.00;;;15.40;57.23
76762;BME280;65705;51.032;13.790;2023-06-14T00:28:35;100323.84;;;15.40;57.56
76762;BME280;65705;51.032;13.790;2023-06-14T00:31:01;100330.97;;;15.39;57.70
76762;BME280;65705;51.032;13.790;2023-06-14T00:33:27;100331.06;;;15.31;58.05
76762;BME280;65705;51.032;13.790;2023-06-14T00:35:53;100322.78;;;15.34;58.17
76762;BME280;65705;51.032;13.790;2023-06-14T00:38:22;100328.22;;;15.33;57.86
76762;BME280;65705;51.032;13.790;2023-06-14T00:40:47;100318.66;;;15.32;58.06
76762;BME280;65705;51.032;13.790;2023-06-14T00:43:13;100324.16;;;15.16;58.36
76762;BME280;65705;51.032;13.790;2023-06-14T00:45:39;100324.88;;;15.10;58.65
76762;BME280;65705;51.032;13.790;2023-06-14T00:48:06;100328.34;;;15.10;59.17
76762;BME280;65705;51.032;13.790;2023-06-14T00:50:32;100331.81;;;15.11;59.12
76762;BME280;65705;51.032;13.790;2023-06-14T00:52:59;100329.34;;;15.09;59.10
76762;BME280;65705;51.032;13.790;2023-06-14T00:55:27;100328.72;;;15.07;59.32
76762;BME280;65705;51.032;13.790;2023-06-14T00:57:55;100323.31;;;15.01;59.19
76762;BME280;65705;51.032;13.790;2023-06-14T01:00:22;100321.41;;;14.95;59.15
76762;BME280;65705;51.032;13.790;2023-06-14T01:02:48;100322.13;;;14.89;59.18
76762;BME280;65705;51.032;13.790;2023-06-14T01:05:15;100322.13;;;14.89;59.41
76762;BME280;65705;51.032;13.790;2023-06-14T01:13:26;100328.50;;;14.79;60.04
76762;BME280;65705;51.032;13.790;2023-06-14T01:15:54;100324.69;;;14.82;59.83
76762;BME280;65705;51.032;13.790;2023-06-14T01:18:22;100321.41;;;14.80;60.09
76762;BME280;65705;51.032;13.790;2023-06-14T01:20:50;100330.44;;;14.86;60.36
76762;BME280;65705;51.032;13.790;2023-06-14T01:23:17;100324.97;;;14.87;60.35
76762;BME280;65705;51.032;13.790;2023-06-14T01:25:43;100326.41;;;14.90;60.25
76762;BME280;65705;51.032;13.790;2023-06-14T01:28:11;100321.41;;;14.80;60.40
76762;BME280;65705;51.032;13.790;2023-06-14T01:30:42;100315.22;;;14.88;60.16
76762;BME280;65705;51.032;13.790;2023-06-14T01:33:14;100323.22;;;14.79;60.12
76762;BME280;65705;51.032;13.790;2023-06-14T01:35:43;100321.47;;;14.72;60.45
76762;BME280;65705;51.032;13.790;2023-06-14T01:38:09;100327.31;;;14.67;60.46
76762;BME280;65705;51.032;13.790;2023-06-14T01:40:35;100319.34;;;14.53;60.92
76762;BME280;65705;51.032;13.790;2023-06-14T01:43:03;100313.41;;;14.51;61.00
76762;BME280;65705;51.032;13.790;2023-06-14T01:45:29;100313.41;;;14.51;61.43
76762;BME280;65705;51.032;13.790;2023-06-14T01:47:56;100304.22;;;14.61;61.50
76762;BME280;65705;51.032;13.790;2023-06-14T01:50:22;100309.53;;;14.61;61.16
76762;BME280;65705;51.032;13.790;2023-06-14T01:52:48;100316.72;;;14.53;60.99
76762;BME280;65705;51.032;13.790;2023-06-14T01:55:14;100315.78;;;14.46;61.23
76762;BME280;65705;51.032;13.790;2023-06-14T01:57:40;100314.13;;;14.45;61.42
76762;BME280;65705;51.032;13.790;2023-06-14T02:00:07;100312.03;;;14.40;61.47
76762;BME280;65705;51.032;13.790;2023-06-14T02:02:38;100316.19;;;14.35;61.44
76762;BME280;65705;51.032;13.790;2023-06-14T02:05:05;100313.09;;;14.31;61.65
76762;BME280;65705;51.032;13.790;2023-06-14T02:07:30;100318.75;;;14.28;61.82
76762;BME280;65705;51.032;13.790;2023-06-14T02:09:56;100326.50;;;14.22;62.17
76762;BME280;65705;51.032;13.790;2023-06-14T02:12:22;100328.84;;;14.17;62.32
76762;BME280;65705;51.032;13.790;2023-06-14T02:14:48;100337.81;;;14.08;62.58
76762;BME280;65705;51.032;13.790;2023-06-14T02:17:14;100328.59;;;14.04;62.77
76762;BME280;65705;51.032;13.790;2023-06-14T02:19:40;100330.91;;;14.07;62.76
76762;BME280;65705;51.032;13.790;2023-06-14T02:22:06;100329.44;;;14.04;62.89
76762;BME280;65705;51.032;13.790;2023-06-14T02:24:33;100327.16;;;14.01;63.08
76762;BME280;65705;51.032;13.790;2023-06-14T02:26:59;100327.34;;;14.00;63.21
76762;BME280;65705;51.032;13.790;2023-06-14T02:29:25;100326.03;;;13.96;63.43
76762;BME280;65705;51.032;13.790;2023-06-14T02:31:51;100330.38;;;13.89;63.48
76762;BME280;65705;51.032;13.790;2023-06-14T02:34:20;100331.91;;;13.75;63.68
76762;BME280;65705;51.032;13.790;2023-06-14T02:36:47;100332.28;;;13.72;63.93
76762;BME280;65705;51.032;13.790;2023-06-14T02:39:13;100338.22;;;13.66;64.29
76762;BME280;65705;51.032;13.790;2023-06-14T02:41:39;100342.00;;;13.71;64.26
76762;BME280;65705;51.032;13.790;2023-06-14T02:44:05;100338.13;;;13.82;64.23
76762;BME280;65705;51.032;13.790;2023-06-14T02:46:32;100333.38;;;13.86;64.10
76762;BME280;65705;51.032;13.790;2023-06-14T02:48:57;100343.22;;;13.92;64.07
76762;BME280;65705;51.032;13.790;2023-06-14T02:51:23;100337.94;;;13.92;63.98
76762;BME280;65705;51.032;13.790;2023-06-14T02:53:49;100339.22;;;13.96;63.93
76762;BME280;65705;51.032;13.790;2023-06-14T02:56:15;100338.88;;;13.99;63.52
76762;BME280;65705;51.032;13.790;2023-06-14T02:58:43;100341.69;;;13.97;63.94
76762;BME280;65705;51.032;13.790;2023-06-14T03:01:09;100347.44;;;14.01;63.65
76762;BME280;65705;51.032;13.790;2023-06-14T03:03:38;100342.06;;;13.94;63.66
76762;BME280;65705;51.032;13.790;2023-06-14T03:06:04;100346.72;;;13.84;63.63
76762;BME280;65705;51.032;13.790;2023-06-14T03:08:33;100354.22;;;13.72;64.33
76762;BME280;65705;51.032;13.790;2023-06-14T03:11:07;100357.88;;;13.63;64.32
76762;BME280;65705;51.032;13.790;2023-06-14T03:13:35;100355.91;;;13.57;64.63
76762;BME280;65705;51.032;13.790;2023-06-14T03:16:08;100355.31;;;13.47;65.03
76762;BME280;65705;51.032;13.790;2023-06-14T03:18:36;100353.00;;;13.44;65.07
76762;BME280;65705;51.032;13.790;2023-06-14T03:21:04;100358.59;;;13.49;64.82
76762;BME280;65705;51.032;13.790;2023-06-14T03:23:31;100354.59;;;13.61;64.82
76762;BME280;65705;51.032;13.790;2023-06-14T03:25:57;100358.19;;;13.68;64.25
76762;BME280;65705;51.032;13.790;2023-06-14T03:28:23;100361.94;;;13.74;64.22
76762;BME280;65705;51.032;13.790;2023-06-14T03:30:50;100358.66;;;13.72;64.22
76762;BME280;65705;51.032;13.790;2023-06-14T03:33:17;100362.25;;;13.79;64.11
76762;BME280;65705;51.032;13.790;2023-06-14T03:35:43;100369.00;;;13.82;64.17
76762;BME280;65705;51.032;13.790;2023-06-14T03:38:09;100366.13;;;13.91;64.02
76762;BME280;65705;51.032;13.790;2023-06-14T03:40:35;100364.97;;;13.94;63.70
76762;BME280;65705;51.032;13.790;2023-06-14T03:43:03;100377.16;;;13.95;63.58
76762;BME280;65705;51.032;13.790;2023-06-14T03:45:29;100377.00;;;13.96;63.56
76762;BME280;65705;51.032;13.790;2023-06-14T03:47:56;100376.28;;;14.02;63.26
76762;BME280;65705;51.032;13.790;2023-06-14T03:50:23;100383.16;;;14.11;63.29
76762;BME280;65705;51.032;13.790;2023-06-14T03:52:49;100377.31;;;14.24;63.03
76762;BME280;65705;51.032;13.790;2023-06-14T03:55:16;100382.22;;;14.35;62.41
76762;BME280;65705;51.032;13.790;2023-06-14T03:57:42;100382.03;;;14.36;62.39
76762;BME280;65705;51.032;13.790;2023-06-14T04:00:12;100395.00;;;14.46;62.62
76762;BME280;65705;51.032;13.790;2023-06-14T04:02:42;100396.78;;;14.53;62.20
76762;BME280;65705;51.032;13.790;2023-06-14T04:05:10;100399.69;;;14.58;61.89
76762;BME280;65705;51.032;13.790;2023-06-14T04:07:39;100409.66;;;14.71;61.68
76762;BME280;65705;51.032;13.790;2023-06-14T04:10:12;100411.94;;;14.74;61.27
76762;BME280;65705;51.032;13.790;2023-06-14T04:12:39;100408.66;;;14.72;61.34
76762;BME280;65705;51.032;13.790;2023-06-14T04:15:05;100405.09;;;14.65;61.27
76762;BME280;65705;51.032;13.790;2023-06-14T04:17:32;100408.28;;;14.60;61.58
76762;BME280;65705;51.032;13.790;2023-06-14T04:20:02;100405.50;;;14.54;61.79
76762;BME280;65705;51.032;13.790;2023-06-14T04:22:30;100406.22;;;14.48;61.72
76762;BME280;65705;51.032;13.790;2023-06-14T04:24:58;100408.72;;;14.41;61.95
76762;BME280;65705;51.032;13.790;2023-06-14T04:27:27;100404.34;;;14.34;62.62
76762;BME280;65705;51.032;13.790;2023-06-14T04:29:54;100405.56;;;14.46;62.34
76762;BME280;65705;51.032;13.790;2023-06-14T04:32:30;100394.41;;;14.58;62.06
76762;BME280;65705;51.032;13.790;2023-06-14T04:34:59;100400.53;;;14.73;61.94
76762;BME280;65705;51.032;13.790;2023-06-14T04:37:30;100400.50;;;14.82;61.23
76762;BME280;65705;51.032;13.790;2023-06-14T04:39:57;100400.34;;;14.98;60.77
76762;BME280;65705;51.032;13.790;2023-06-14T04:42:23;100403.63;;;15.00;60.94
76762;BME280;65705;51.032;13.790;2023-06-14T04:44:56;100413.97;;;15.09;60.75
76762;BME280;65705;51.032;13.790;2023-06-14T04:47:22;100425.44;;;15.16;59.99
76762;BME280;65705;51.032;13.790;2023-06-14T04:49:50;100428.16;;;15.08;60.08
76762;BME280;65705;51.032;13.790;2023-06-14T04:52:20;100431.34;;;15.04;59.94
76762;BME280;65705;51.032;13.790;2023-06-14T04:54:47;100431.88;;;14.99;60.49
76762;BME280;65705;51.032;13.790;2023-06-14T04:57:17;100429.50;;;15.04;60.79
76762;BME280;65705;51.032;13.790;2023-06-14T04:59:44;100435.00;;;15.17;60.29
76762;BME280;65705;51.032;13.790;2023-06-14T05:02:11;100434.31;;;15.23;59.81
76762;BME280;65705;51.032;13.790;2023-06-14T05:04:38;100434.75;;;15.27;59.50
76762;BME280;65705;51.032;13.790;2023-06-14T05:07:07;100437.94;;;15.22;59.87
76762;BME280;65705;51.032;13.790;2023-06-14T05:09:33;100425.91;;;15.20;60.31
76762;BME280;65705;51.032;13.790;2023-06-14T05:11:59;100434.94;;;15.25;59.93
76762;BME280;65705;51.032;13.790;2023-06-14T05:14:26;100443.22;;;15.22;59.88
76762;BME280;65705;51.032;13.790;2023-06-14T05:16:52;100442.47;;;15.14;60.12
76762;BME280;65705;51.032;13.790;2023-06-14T05:19:19;100444.66;;;15.10;60.47
76762;BME280;65705;51.032;13.790;2023-06-14T05:21:47;100442.84;;;15.11;60.53
76762;BME280;65705;51.032;13.790;2023-06-14T05:24:13;100448.13;;;15.11;60.97
76762;BME280;65705;51.032;13.790;2023-06-14T05:26:39;100444.75;;;15.17;60.56
76762;BME280;65705;51.032;13.790;2023-06-14T05:29:06;100447.63;;;15.30;60.88
76762;BME280;65705;51.032;13.790;2023-06-14T05:31:31;100449.84;;;15.41;59.98
76762;BME280;65705;51.032;13.790;2023-06-14T05:33:58;100443.00;;;15.46;59.83
76762;BME280;65705;51.032;13.790;2023-06-14T05:36:24;100442.72;;;15.56;59.86
76762;BME280;65705;51.032;13.790;2023-06-14T05:38:50;100446.66;;;15.60;59.77
76762;BME280;65705;51.032;13.790;2023-06-14T05:41:25;100454.41;;;15.61;59.36
76762;BME280;65705;51.032;13.790;2023-06-14T05:43:52;100449.31;;;15.60;59.45
76762;BME280;65705;51.032;13.790;2023-06-14T05:46:18;100449.94;;;15.62;59.41
76762;BME280;65705;51.032;13.790;2023-06-14T05:48:51;100452.66;;;15.68;59.52
76762;BME280;65705;51.032;13.790;2023-06-14T05:51:17;100448.31;;;15.61;59.63
76762;BME280;65705;51.032;13.790;2023-06-14T05:53:48;100451.50;;;15.71;59.08
76762;BME280;65705;51.032;13.790;2023-06-14T05:56:15;100456.50;;;15.66;58.95
76762;BME280;65705;51.032;13.790;2023-06-14T05:58:41;100454.41;;;15.61;59.74
76762;BME280;65705;51.032;13.790;2023-06-14T06:01:07;100455.31;;;15.68;59.67
76762;BME280;65705;51.032;13.790;2023-06-14T06:03:33;100457.88;;;15.76;59.23
76762;BME280;65705;51.032;13.790;2023-06-14T06:05:59;100454.50;;;15.82;59.01
76762;BME280;65705;51.032;13.790;2023-06-14T06:08:25;100449.47;;;15.88;59.05
76762;BME280;65705;51.032;13.790;2023-06-14T06:10:51;100455.94;;;15.85;59.03
76762;BME280;65705;51.032;13.790;2023-06-14T06:13:17;100461.06;;;15.87;59.04
76762;BME280;65705;51.032;13.790;2023-06-14T06:15:43;100457.88;;;15.91;58.94
76762;BME280;65705;51.032;13.790;2023-06-14T06:18:08;100459.59;;;15.99;58.53
76762;BME280;65705;51.032;13.790;2023-06-14T06:20:34;100472.66;;;16.00;58.41
76762;BME280;65705;51.032;13.790;2023-06-14T06:23:01;100473.09;;;16.04;58.58
76762;BME280;65705;51.032;13.790;2023-06-14T06:25:27;100486.34;;;16.04;58.87
76762;BME280;65705;51.032;13.790;2023-06-14T06:27:54;100480.03;;;16.05;58.89
76762;BME280;65705;51.032;13.790;2023-06-14T06:30:21;100477.19;;;16.06;59.11
76762;BME280;65705;51.032;13.790;2023-06-14T06:32:47;100482.41;;;16.14;58.86
76762;BME280;65705;51.032;13.790;2023-06-14T06:35:13;100483.53;;;16.26;58.78
76762;BME280;65705;51.032;13.790;2023-06-14T06:37:41;100483.00;;;16.31;58.23
76762;BME280;65705;51.032;13.790;2023-06-14T06:40:07;100486.09;;;16.34;57.57
76762;BME280;65705;51.032;13.790;2023-06-14T06:42:34;100493.84;;;16.36;57.69
76762;BME280;65705;51.032;13.790;2023-06-14T06:45:03;100482.88;;;16.39;58.20
76762;BME280;65705;51.032;13.790;2023-06-14T06:47:30;100485.63;;;16.45;58.38
76762;BME280;65705;51.032;13.790;2023-06-14T06:49:56;100485.31;;;16.55;58.24
76762;BME280;65705;51.032;13.790;2023-06-14T06:52:22;100481.00;;;16.68;57.79
76762;BME280;65705;51.032;13.790;2023-06-14T06:54:48;100476.94;;;16.72;57.10
76762;BME280;65705;51.032;13.790;2023-06-14T06:57:14;100476.81;;;16.80;56.56
76762;BME280;65705;51.032;13.790;2023-06-14T06:59:40;100481.38;;;16.87;56.34
76762;BME280;65705;51.032;13.790;2023-06-14T07:02:06;100476.97;;;16.94;56.75
76762;BME280;65705;51.032;13.790;2023-06-14T07:04:32;100468.03;;;17.01;56.48
76762;BME280;65705;51.032;13.790;2023-06-14T07:06:57;100471.38;;;17.10;56.49
76762;BME280;65705;51.032;13.790;2023-06-14T07:09:23;100472.25;;;17.17;56.42
76762;BME280;65705;51.032;13.790;2023-06-14T07:11:50;100471.47;;;17.23;55.94
76762;BME280;65705;51.032;13.790;2023-06-14T07:14:16;100478.66;;;17.29;55.22
76762;BME280;65705;51.032;13.790;2023-06-14T07:16:41;100476.44;;;17.32;54.65
76762;BME280;65705;51.032;13.790;2023-06-14T07:19:08;100480.34;;;17.36;54.69
76762;BME280;65705;51.032;13.790;2023-06-14T07:21:35;100478.56;;;17.43;54.11
76762;BME280;65705;51.032;13.790;2023-06-14T07:24:07;100476.84;;;17.57;54.01
76762;BME280;65705;51.032;13.790;2023-06-14T07:26:33;100473.31;;;17.50;53.29
76762;BME280;65705;51.032;13.790;2023-06-14T07:28:59;100472.94;;;17.53;53.45
76762;BME280;65705;51.032;13.790;2023-06-14T07:31:25;100477.47;;;17.59;53.55
76762;BME280;65705;51.032;13.790;2023-06-14T07:33:51;100476.50;;;17.66;54.05
76762;BME280;65705;51.032;13.790;2023-06-14T07:36:17;100490.63;;;17.73;53.81
76762;BME280;65705;51.032;13.790;2023-06-14T07:38:43;100480.03;;;17.80;52.77
76762;BME280;65705;51.032;13.790;2023-06-14T07:41:10;100485.81;;;17.90;51.92
76762;BME280;65705;51.032;13.790;2023-06-14T07:43:36;100480.16;;;18.00;51.03
76762;BME280;65705;51.032;13.790;2023-06-14T07:46:01;100488.13;;;18.00;48.78
76762;BME280;65705;51.032;13.790;2023-06-14T07:48:28;100492.84;;;18.11;46.71
76762;BME280;65705;51.032;13.790;2023-06-14T07:50:53;100486.31;;;18.07;46.64
76762;BME280;65705;51.032;13.790;2023-06-14T07:53:20;100484.47;;;18.07;47.59
76762;BME280;65705;51.032;13.790;2023-06-14T07:55:45;100479.97;;;18.08;47.92
76762;BME280;65705;51.032;13.790;2023-06-14T07:58:12;100495.34;;;18.12;47.84
76762;BME280;65705;51.032;13.790;2023-06-14T08:00:38;100490.88;;;18.19;47.06
76762;BME280;65705;51.032;13.790;2023-06-14T08:03:04;100496.81;;;18.21;46.88
76762;BME280;65705;51.032;13.790;2023-06-14T08:05:30;100501.50;;;18.26;46.23
76762;BME280;65705;51.032;13.790;2023-06-14T08:07:55;100496.19;;;18.26;47.18
76762;BME280;65705;51.032;13.790;2023-06-14T08:10:22;100500.53;;;18.33;47.04
76762;BME280;65705;51.032;13.790;2023-06-14T08:12:48;100495.22;;;18.33;46.78
76762;BME280;65705;51.032;13.790;2023-06-14T08:15:16;100496.63;;;18.36;47.91
76762;BME280;65705;51.032;13.790;2023-06-14T08:17:43;100497.88;;;18.40;47.86
76762;BME280;65705;51.032;13.790;2023-06-14T08:20:09;100497.50;;;18.43;47.01
76762;BME280;65705;51.032;13.790;2023-06-14T08:22:36;100498.16;;;18.51;46.52
76762;BME280;65705;51.032;13.790;2023-06-14T08:25:02;100506.56;;;18.55;46.22
76762;BME280;65705;51.032;13.790;2023-06-14T08:27:29;100503.47;;;18.58;43.52
76762;BME280;65705;51.032;13.790;2023-06-14T08:29:55;100503.72;;;18.69;43.97
76762;BME280;65705;51.032;13.790;2023-06-14T08:32:22;100492.69;;;18.72;43.06
76762;BME280;65705;51.032;13.790;2023-06-14T08:34:48;100501.69;;;18.84;43.67
76762;BME280;65705;51.032;13.790;2023-06-14T08:37:13;100489.25;;;18.98;43.49
76762;BME280;65705;51.032;13.790;2023-06-14T08:39:39;100491.06;;;18.98;43.38
76762;BME280;65705;51.032;13.790;2023-06-14T08:42:06;100490.28;;;19.04;43.38
76762;BME280;65705;51.032;13.790;2023-06-14T08:44:33;100486.16;;;19.08;43.81
76762;BME280;65705;51.032;13.790;2023-06-14T08:47:00;100495.78;;;19.02;43.80
76762;BME280;65705;51.032;13.790;2023-06-14T08:49:26;100491.69;;;19.00;43.67
76762;BME280;65705;51.032;13.790;2023-06-14T08:51:57;100492.28;;;18.95;43.64
76762;BME280;65705;51.032;13.790;2023-06-14T08:54:23;100501.72;;;18.91;44.27
76762;BME280;65705;51.032;13.790;2023-06-14T08:56:53;100487.81;;;18.89;44.81
76762;BME280;65705;51.032;13.790;2023-06-14T08:59:25;100493.53;;;18.92;44.13
76762;BME280;65705;51.032;13.790;2023-06-14T09:01:54;100495.34;;;18.99;43.38
76762;BME280;65705;51.032;13.790;2023-06-14T09:04:21;100489.63;;;18.95;43.06
76762;BME280;65705;51.032;13.790;2023-06-14T09:06:55;100498.03;;;18.85;43.99
76762;BME280;65705;51.032;13.790;2023-06-14T09:09:22;100494.16;;;18.95;44.41
76762;BME280;65705;51.032;13.790;2023-06-14T09:11:54;100500.69;;;18.99;43.63
76762;BME280;65705;51.032;13.790;2023-06-14T09:14:23;100504.16;;;19.06;42.53
76762;BME280;65705;51.032;13.790;2023-06-14T09:16:52;100512.78;;;19.14;42.07
76762;BME280;65705;51.032;13.790;2023-06-14T09:19:23;100502.31;;;19.13;42.24
76762;BME280;65705;51.032;13.790;2023-06-14T09:21:49;100513.00;;;19.19;41.81
76762;BME280;65705;51.032;13.790;2023-06-14T09:24:15;100501.31;;;19.20;42.06
76762;BME280;65705;51.032;13.790;2023-06-14T09:26:41;100504.38;;;19.24;42.22
76762;BME280;65705;51.032;13.790;2023-06-14T09:29:07;100502.97;;;19.41;42.33
76762;BME280;65705;51.032;13.790;2023-06-14T09:31:32;100493.72;;;19.56;42.67
76762;BME280;65705;51.032;13.790;2023-06-14T09:33:59;100495.97;;;19.59;43.06
76762;BME280;65705;51.032;13.790;2023-06-14T09:36:27;100494.97;;;19.60;42.88
76762;BME280;65705;51.032;13.790;2023-06-14T09:38:55;100496.59;;;19.68;43.00
76762;BME280;65705;51.032;13.790;2023-06-14T09:41:30;100489.41;;;19.75;42.93
76762;BME280;65705;51.032;13.790;2023-06-14T09:43:57;100494.53;;;19.76;43.47
76762;BME280;65705;51.032;13.790;2023-06-14T09:46:29;100501.47;;;19.77;43.08
76762;BME280;65705;51.032;13.790;2023-06-14T09:48:59;100508.63;;;19.83;43.50
76762;BME280;65705;51.032;13.790;2023-06-14T09:51:25;100499.59;;;19.91;42.89
76762;BME280;65705;51.032;13.790;2023-06-14T09:53:52;100504.13;;;19.90;43.36
76762;BME280;65705;51.032;13.790;2023-06-14T09:56:23;100498.56;;;19.92;43.51
76762;BME280;65705;51.032;13.790;2023-06-14T09:58:56;100493.81;;;20.01;43.38
76762;BME280;65705;51.032;13.790;2023-06-14T10:01:24;100486.81;;;20.06;43.39
76762;BME280;65705;51.032;13.790;2023-06-14T10:03:54;100493.00;;;20.07;43.05
76762;BME280;65705;51.032;13.790;2023-06-14T10:06:22;100491.38;;;20.06;42.89
76762;BME280;65705;51.032;13.790;2023-06-14T10:08:52;100485.22;;;20.05;42.96
76762;BME280;65705;51.032;13.790;2023-06-14T10:11:20;100490.09;;;20.08;42.81
76762;BME280;65705;51.032;13.790;2023-06-14T10:13:47;100486.22;;;20.11;42.76
76762;BME280;65705;51.032;13.790;2023-06-14T10:16:34;100488.88;;;20.11;42.55
76762;BME280;65705;51.032;13.790;2023-06-14T10:24:16;100494.28;;;19.84;43.03
76762;BME280;65705;51.032;13.790;2023-06-14T10:26:54;100490.03;;;19.77;42.57
76762;BME280;65705;51.032;13.790;2023-06-14T10:29:20;100484.44;;;19.85;42.87
76762;BME280;65705;51.032;13.790;2023-06-14T10:31:50;100487.25;;;20.03;43.26
76762;BME280;65705;51.032;13.790;2023-06-14T10:34:30;100481.88;;;20.23;42.57
76762;BME280;65705;51.032;13.790;2023-06-14T10:37:07;100483.94;;;20.27;41.83
76762;BME280;65705;51.032;13.790;2023-06-14T10:39:39;100471.09;;;20.49;41.95
76762;BME280;65705;51.032;13.790;2023-06-14T10:42:06;100473.03;;;20.66;41.42
76762;BME280;65705;51.032;13.790;2023-06-14T10:44:37;100473.72;;;20.86;41.11
76762;BME280;65705;51.032;13.790;2023-06-14T10:47:09;100472.63;;;21.01;41.40
76762;BME280;65705;51.032;13.790;2023-06-14T10:49:49;100470.00;;;21.19;41.31
76762;BME280;65705;51.032;13.790;2023-06-14T10:52:16;100468.03;;;21.08;41.00
76762;BME280;65705;51.032;13.790;2023-06-14T10:57:28;100467.28;;;20.94;42.09
76762;BME280;65705;51.032;13.790;2023-06-14T10:59:53;100470.63;;;20.83;41.87
76762;BME280;65705;51.032;13.790;2023-06-14T11:02:43;100466.28;;;20.88;42.78
76762;BME280;65705;51.032;13.790;2023-06-14T11:05:14;100464.50;;;20.82;41.97
76762;BME280;65705;51.032;13.790;2023-06-14T11:10:41;100460.31;;;20.93;41.67
76762;BME280;65705;51.032;13.790;2023-06-14T11:13:08;100462.16;;;20.92;41.59
76762;BME280;65705;51.032;13.790;2023-06-14T11:15:36;100455.19;;;20.91;41.91
76762;BME280;65705;51.032;13.790;2023-06-14T11:18:06;100456.75;;;20.74;43.09
76762;BME280;65705;51.032;13.790;2023-06-14T11:20:34;100461.00;;;20.57;43.66
76762;BME280;65705;51.032;13.790;2023-06-14T11:23:04;100458.94;;;20.53;44.32
76762;BME280;65705;51.032;13.790;2023-06-14T11:25:30;100460.44;;;20.49;44.70
76762;BME280;65705;51.032;13.790;2023-06-14T11:27:57;100460.44;;;20.49;44.79
76762;BME280;65705;51.032;13.790;2023-06-14T11:30:23;100466.72;;;20.54;44.95
76762;BME280;65705;51.032;13.790;2023-06-14T11:32:50;100463.00;;;20.62;45.00
76762;BME280;65705;51.032;13.790;2023-06-14T11:35:18;100459.63;;;20.73;44.77
76762;BME280;65705;51.032;13.790;2023-06-14T11:37:43;100458.13;;;20.83;44.68
76762;BME280;65705;51.032;13.790;2023-06-14T11:40:11;100462.53;;;20.71;44.30
76762;BME280;65705;51.032;13.790;2023-06-14T11:42:39;100457.81;;;20.67;44.69
76762;BME280;65705;51.032;13.790;2023-06-14T11:45:09;100458.63;;;20.74;45.11
76762;BME280;65705;51.032;13.790;2023-06-14T11:47:36;100459.00;;;20.77;45.08
76762;BME280;65705;51.032;13.790;2023-06-14T11:50:03;100453.38;;;20.85;45.07
76762;BME280;65705;51.032;13.790;2023-06-14T11:52:30;100457.81;;;20.98;45.16
76762;BME280;65705;51.032;13.790;2023-06-14T11:54:57;100448.53;;;21.07;44.73
76762;BME280;65705;51.032;13.790;2023-06-14T11:57:23;100458.16;;;21.08;44.94
76762;BME280;65705;51.032;13.790;2023-06-14T11:59:49;100449.28;;;21.14;44.77
76762;BME280;65705;51.032;13.790;2023-06-14T12:02:19;100453.75;;;21.20;44.70
76762;BME280;65705;51.032;13.790;2023-06-14T12:04:48;100446.94;;;21.24;44.37
76762;BME280;65705;51.032;13.790;2023-06-14T12:07:15;100438.03;;;21.30;44.94
76762;BME280;65705;51.032;13.790;2023-06-14T12:12:38;100448.09;;;21.10;44.50
76762;BME280;65705;51.032;13.790;2023-06-14T12:15:06;100456.91;;;21.11;44.91
76762;BME280;65705;51.032;13.790;2023-06-14T12:17:36;100452.94;;;20.88;45.15
76762;BME280;65705;51.032;13.790;2023-06-14T12:20:09;100461.19;;;20.87;45.67
76762;BME280;65705;51.032;13.790;2023-06-14T12:22:50;100454.47;;;20.78;45.37
76762;BME280;65705;51.032;13.790;2023-06-14T12:25:33;100470.97;;;20.68;45.81
76762;BME280;65705;51.032;13.790;2023-06-14T12:28:08;100458.03;;;20.65;45.95
76762;BME280;65705;51.032;13.790;2023-06-14T12:30:35;100460.47;;;20.73;45.95
76762;BME280;65705;51.032;13.790;2023-06-14T12:33:02;100461.88;;;20.76;45.81
76762;BME280;65705;51.032;13.790;2023-06-14T12:35:28;100463.25;;;20.85;45.72
76762;BME280;65705;51.032;13.790;2023-06-14T12:37:53;100455.59;;;20.95;46.14
76762;BME280;65705;51.032;13.790;2023-06-14T12:40:19;100457.38;;;21.08;45.33
76762;BME280;65705;51.032;13.790;2023-06-14T12:42:45;100446.78;;;21.19;45.11
76762;BME280;65705;51.032;13.790;2023-06-14T12:45:14;100434.13;;;21.33;44.81
76762;BME280;65705;51.032;13.790;2023-06-14T12:47:40;100439.78;;;21.43;44.78
76762;BME280;65705;51.032;13.790;2023-06-14T12:50:06;100445.44;;;21.28;45.06
76762;BME280;65705;51.032;13.790;2023-06-14T12:52:32;100435.59;;;21.29;45.08
76762;BME280;65705;51.032;13.790;2023-06-14T12:55:07;100438.28;;;21.29;44.69
76762;BME280;65705;51.032;13.790;2023-06-14T12:57:33;100439.16;;;21.41;44.60
76762;BME280;65705;51.032;13.790;2023-06-14T13:00:02;100430.78;;;21.37;44.48
76762;BME280;65705;51.032;13.790;2023-06-14T13:02:28;100435.13;;;21.14;45.16